logo
App data

Sweezy Gunner

Sweezy Gunner is an eye melting, brain bending, mouse squeezing 2D Shoot em up. destroy everything in your path, Upgrade the Sweezy Gunner ship. A Large open World! Travel through the lush green fields, frozen tundra and arid desert. Explore the depths of the many dungeons, caves and temples and collect that tasty loot!
Store | Hub | SteamDB | Site
Developer: Windybeard Publisher: Windybeard
Genre: Action, Indie
Languages: English
Tags: Action (35), Indie (35), Bullet Hell (17), Space (13), Shoot 'Em Up (12), Shooter (11)
Category: Single-player, Steam Achievements, Steam Trading Cards
Release date: May 6, 2014
Price: $3.99
Old userscore: 82% Owners: 20,000 .. 50,000
Followers: 285
Peak concurrent players yesterday: 18
Playtime total: 00:01 (average) 00:01 (median)

Steam Spy is still in beta, so expect major bugs.

Owners data:

Access restricted.

This feature is only available to users with special access rights. Sorry.

If you want to proceed, you need to register or log in first and then back Steam Spy on Patreon. Look for Indie or Pro pledge.

Don't forget to use the same email as on Steam Spy!

Audience in 2 weeks:

Access restricted.

This feature is only available to users with special access rights. Sorry.

If you want to proceed, you need to register or log in first and then back Steam Spy on Patreon. Look for Indie or Pro pledge.

Don't forget to use the same email as on Steam Spy!

Peak daily concurrent players:

CCU data courtesy of SteamDB. Used with permission.

Hourly concurrent players:

Daily Twitch stats:

Hourly Twitch stats:

Followers over time

Access restricted.

This feature is only available to users with special access rights. Sorry.

If you want to proceed, you need to register or log in first and then back Steam Spy on Patreon. Look for Indie or Pro pledge.

Don't forget to use the same email as on Steam Spy!

Views for top 50 videos on YouTube for this game:

Games similar to this one:

# Game Release date
Price
Score rank
(Userscore / Metascore)
Owners
Players
Playtime (Median)
1 Dungeon Painter Studio Feb 26, 2017 $14.99N/A (N/A)50,000 .. 100,0000%00:00 (00:00)
2 The guard of dungeon Mar 7, 2017 $6.99N/A (N/A)0 .. 20,0000%00:00 (00:00)
3 Swipecart May 8, 2014 $2.99N/A (N/A)50,000 .. 100,0000%00:00 (00:00)
4 Aqua Kitty - Milk Mine Defender Feb 3, 2014 $6.99N/A (N/A)20,000 .. 50,0000%00:00 (00:00)
5 Spy Chameleon - RGB Agent Jun 11, 2014 $4.99N/A (N/A)20,000 .. 50,0000%00:00 (00:00)
6 Grapple Mar 9, 2015 $6.99N/A (N/A)20,000 .. 50,0000%00:00 (00:00)
7 AaAaAA!!! - A Reckless Disregard for Gravity Sep 3, 2009 $9.99N/A (N/A/81%)100,000 .. 200,0000%00:00 (00:00)
8 Tribloos 2 Jan 30, 2014 $4.99N/A (N/A)50,000 .. 100,0000%00:00 (00:00)
9 Luxor: 5th Passage Jan 25, 2011 $9.99N/A (N/A)50,000 .. 100,0000%00:00 (00:00)
10 About Love, Hate and the other ones Dec 12, 2014 $6.99N/A (N/A)100,000 .. 200,0000%00:00 (00:00)
11 Glowfish Sep 30, 2011 $9.99N/A (N/A)20,000 .. 50,0000%00:00 (00:00)
12 On Rusty Trails Jun 13, 2016 $12.99N/A (N/A/77%)20,000 .. 50,0000%00:00 (00:00)
13 Ancients of Ooga May 20, 2011 $9.99N/A (N/A)20,000 .. 50,0000%00:00 (00:00)
14 Strata May 29, 2014 $7.99N/A (N/A)20,000 .. 50,0000%00:00 (00:00)
15 Blocks That Matter Aug 19, 2011 $4.99N/A (N/A/72%)200,000 .. 500,0000%00:00 (00:00)
16 Sokobond Jul 21, 2014 $9.99N/A (N/A/82%)20,000 .. 50,0000%00:00 (00:00)
17 Luxor Evolved Mar 1, 2012 $9.99N/A (N/A)20,000 .. 50,0000%00:00 (00:00)
18 Pressured Jul 18, 2014 $2.99N/A (N/A)200,000 .. 500,0000%00:00 (00:00)
19 Divide By Sheep Jul 2, 2015 $4.99N/A (N/A/83%)0 .. 20,0000%00:00 (00:00)
20 Jamsouls Aug 24, 2014 $3.99N/A (N/A)0 .. 20,0000%00:00 (00:00)
21 Castle Jan 7, 2015 $4.99N/A (N/A)20,000 .. 50,00012.5%04:33 (01:31)
22 Bloop Reloaded Feb 6, 2015 FreeN/A (N/A)100,000 .. 200,0000%00:00 (00:00)
23 Ichi Jun 12, 2014 $4.99N/A (N/A)50,000 .. 100,0000%00:00 (00:00)
24 A Good Snowman Is Hard To Build Feb 25, 2015 $9.99N/A (N/A)20,000 .. 50,0000%00:00 (00:00)
25 Hippocampal: The White Sofa May 27, 2014 $4.99N/A (N/A)0 .. 20,0000%00:00 (00:00)
26 This Starry Midnight We Make Jun 1, 2015 $9.99N/A (N/A)0 .. 20,0000%00:00 (00:00)
27 The Blue Flamingo Nov 18, 2014 $4.99N/A (N/A/55%)100,000 .. 200,0000%00:00 (00:00)
28 Letter Quest: Grimm's Journey Nov 20, 2014 $7.99N/A (N/A/73%)100,000 .. 200,0000%00:00 (00:00)
29 Hidden in Plain Sight Jul 16, 2014 $5.99N/A (N/A)0 .. 20,0000%00:00 (00:00)
30 Thief Town Dec 4, 2014 $7.99N/A (N/A)20,000 .. 50,0000%00:00 (00:00)
31 Point Perfect Jul 17, 2014 $4.99N/A (N/A)20,000 .. 50,0000%00:00 (00:00)
32 1931: Scheherazade at the Library of Pergamum Mar 26, 2015 $14.99N/A (N/A)0 .. 20,0000%00:00 (00:00)
33 Metrocide Dec 15, 2014 $12.99N/A (N/A/68%)20,000 .. 50,0000%00:00 (00:00)
34 Steam and Metal Feb 9, 2015 $4.99N/A (N/A)0 .. 20,0000%00:00 (00:00)
35 REVOLVER360 RE:ACTOR Oct 24, 2014 $9.99N/A (N/A)50,000 .. 100,0000%00:00 (00:00)
36 Marble Duel: Sphere-Matching Tactical Fantasy Nov 12, 2015 $14.99N/A (N/A)50,000 .. 100,0000%00:00 (00:00)
37 Pester Aug 21, 2015 $0.99N/A (N/A)100,000 .. 200,0000%00:00 (00:00)
38 Robot vs Birds Zombies Jun 1, 2013 $0.99N/A (N/A)100,000 .. 200,0000%00:00 (00:00)
39 The Reject Demon: Toko Chapter 0 — Prelude May 8, 2015 $4.99N/A (N/A)20,000 .. 50,0000%00:00 (00:00)
40 Bob Was Hungry Aug 19, 2015 $9.99N/A (N/A)50,000 .. 100,0000%00:00 (00:00)
41 Boss Monster Apr 27, 2016 N/AN/A (N/A)20,000 .. 50,0000%00:00 (00:00)
42 Pixel Puzzles 2: Birds Feb 20, 2015 $4.99N/A (N/A)200,000 .. 500,0005%00:36 (00:12)
43 Botology Jun 24, 2015 $0.49N/A (N/A)50,000 .. 100,0000%00:00 (00:00)
44 Quell May 14, 2015 $3.99N/A (N/A)0 .. 20,0000%00:00 (00:00)
45 Red Goblin: Cursed Forest May 15, 2015 $4.99N/A (N/A)0 .. 20,0000%00:00 (00:00)
46 Streets of Chaos Jan 28, 2015 N/AN/A (N/A)100,000 .. 200,0000%00:00 (00:00)
47 Power of Love Jul 21, 2015 $0.99N/A (N/A)20,000 .. 50,0000%00:00 (00:00)
48 GunWorld Nov 16, 2014 $1.99N/A (N/A)0 .. 20,0000%00:00 (00:00)
49 Fingered Aug 18, 2015 $1.87N/A (N/A)50,000 .. 100,00012.5%01:31 (00:45)
50 Dodge Mar 16, 2015 $1.99N/A (N/A)20,000 .. 50,0000%00:00 (00:00)
51 Painters Guild Sep 1, 2015 $9.99N/A (N/A)20,000 .. 50,0000%00:00 (00:00)
52 Avalanche 2: Super Avalanche Jun 11, 2015 $4.99N/A (N/A)20,000 .. 50,0000%00:00 (00:00)
53 In Between Aug 21, 2015 $3.59N/A (N/A/68%)50,000 .. 100,0000%00:00 (00:00)
54 The Dolls: Reborn May 25, 2016 $4.99N/A (N/A)20,000 .. 50,0000%00:00 (00:00)
55 I Expect You To Die Apr 25, 2017 $24.99N/A (N/A/77%)200,000 .. 500,0000%00:00 (00:00)
56 Richie's Plank Experience Dec 18, 2017 $14.99N/A (N/A)50,000 .. 100,0000%00:00 (00:00)
57 12 Labours of Hercules IV: Mother Nature (Platinum Edition) Dec 25, 2015 $2.99N/A (N/A)20,000 .. 50,0000%00:00 (00:00)
58 Cold Waters Jun 5, 2017 $39.99N/A (N/A)50,000 .. 100,0000%00:00 (00:00)
59 Lift It Jan 20, 2017 $4.99N/A (N/A)20,000 .. 50,0000%00:00 (00:00)
60 Machine Hunt May 15, 2017 $2.99N/A (N/A)50,000 .. 100,0000%00:00 (00:00)
61 Pro Gamer Manager Apr 28, 2016 $9.99N/A (N/A)20,000 .. 50,0000%00:00 (00:00)
62 Masky Dec 16, 2016 $0.99N/A (N/A)20,000 .. 50,0000%00:00 (00:00)
63 Sophie's Curse Mar 16, 2016 $1.69N/A (N/A)50,000 .. 100,0000%00:00 (00:00)
64 King Kaiju Jan 31, 2017 $4.99N/A (N/A)0 .. 20,0000%00:00 (00:00)
65 A grande bagunça espacial - The big space mess Apr 5, 2016 $0.99N/A (N/A)100,000 .. 200,0000%00:00 (00:00)
66 Brother Wings Jan 10, 2017 $0.99N/A (N/A)100,000 .. 200,0000%00:00 (00:00)
67 Burst Mar 14, 2016 N/AN/A (N/A)50,000 .. 100,0000%00:00 (00:00)
68 Idle Evolution Apr 3, 2017 $4.99N/A (N/A)0 .. 20,0000%00:00 (00:00)
69 Autumn Sep 23, 2014 $2.99N/A (N/A)100,000 .. 200,0000%00:00 (00:00)
70 Winexy Jan 13, 2017 $0.49N/A (N/A)20,000 .. 50,0000%00:00 (00:00)

Tags over time:

Access restricted.

This feature is only available to users with special access rights. Sorry.

If you want to proceed, you need to register or log in first and then back Steam Spy on Patreon. Look for Indie or Pro pledge.

Don't forget to use the same email as on Steam Spy!

Owners of this game also own:

Access restricted.

This feature is only available to users with special access rights. Sorry.

If you want to proceed, you need to register or log in first and then back Steam Spy on Patreon. Look for Indie or Pro pledge.

Don't forget to use the same email as on Steam Spy!

Playtime distribution:

Access restricted.

This feature is only available to users with special access rights. Sorry.

If you want to proceed, you need to register or log in first and then back Steam Spy on Patreon. Look for Indie or Pro pledge.

Don't forget to use the same email as on Steam Spy!

Playtime (2 weeks):

Access restricted.

This feature is only available to users with special access rights. Sorry.

If you want to proceed, you need to register or log in first and then back Steam Spy on Patreon. Look for Indie or Pro pledge.

Don't forget to use the same email as on Steam Spy!

User reviews:

Login required.

Please register or log in to see this information.